Time;durP1;ratioP1;P1;durP2;ratioP2;P2;SDS_P1;SDS_P2;PMS_P1;PMS_P2;Temp;Humidity;BMP_temperature;BMP_pressure;BME280_temperature;BME280_humidity;BME280_pressure;Samples;Min_cycle;Max_cycle;Signal;HPM_P1;HPM_P2
2023/03/08 00:01:44;;;;;;;;;;;-0.90;99.90;;;;;;5011209;28;1082;-68
2023/03/08 00:04:10;;;;;;;;;;;-0.10;99.90;;;;;;5011974;28;1160;-68
2023/03/08 00:06:35;;;;;;;;;;;-1.00;99.90;;;;;;5031686;28;1910;-68
2023/03/08 00:09:01;;;;;;;;;;;-1.00;99.90;;;;;;5028052;28;1365;-68
2023/03/08 00:11:27;;;;;;;;;;;-1.20;99.90;;;;;;4994047;28;1122;-68
2023/03/08 00:13:54;;;;;;;;;;;-1.20;99.90;;;;;;5023361;28;1093;-68
2023/03/08 00:16:20;;;;;;;;;;;-1.30;99.90;;;;;;5013245;28;1169;-68
2023/03/08 00:18:46;;;;;;;;;;;-1.50;99.90;;;;;;5031472;28;1093;-68
2023/03/08 00:21:13;;;;;;;;;;;-1.60;99.90;;;;;;5030652;28;1245;-68
2023/03/08 00:23:38;;;;;;;;;;;-1.60;99.90;;;;;;5024148;28;959;-68
2023/03/08 00:26:04;;;;;;;;;;;-1.80;99.90;;;;;;5031304;28;1983;-68
2023/03/08 00:28:30;;;;;;;;;;;-1.80;99.90;;;;;;5028602;28;1179;-68
2023/03/08 00:30:58;;;;;;;;;;;-2.00;99.90;;;;;;5000533;28;1147;-68
2023/03/08 00:33:24;;;;;;;;;;;-2.10;99.90;;;;;;5025232;28;1109;-68
2023/03/08 00:35:55;;;;;;;;;;;-2.20;99.90;;;;;;5020225;28;1355;-68
2023/03/08 00:38:21;;;;;;;;;;;-2.20;99.90;;;;;;5019459;28;1460;-68
2023/03/08 00:40:46;;;;;;;;;;;-2.20;99.90;;;;;;5018009;28;1240;-68
2023/03/08 00:43:12;;;;;;;;;;;-2.20;99.90;;;;;;5009498;28;1173;-68
2023/03/08 00:45:38;;;;;;;;;;;-2.20;99.90;;;;;;5011107;28;1976;-68
2023/03/08 00:48:03;;;;;;;;;;;-2.10;99.90;;;;;;5009984;28;1105;-68
2023/03/08 00:50:29;;;;;;;;;;;-2.10;99.90;;;;;;5006866;28;1421;-68
2023/03/08 00:52:55;;;;;;;;;;;-1.70;99.90;;;;;;5021146;28;1617;-68
2023/03/08 00:55:21;;;;;;;;;;;-1.20;99.90;;;;;;5019577;28;1279;-68
2023/03/08 00:57:47;;;;;;;;;;;-1.10;99.90;;;;;;5008455;28;1325;-68
2023/03/08 01:00:13;;;;;;;;;;;-0.90;99.90;;;;;;5028378;28;1558;-68
2023/03/08 01:02:39;;;;;;;;;;;-0.90;99.90;;;;;;5028530;28;1157;-68
2023/03/08 01:05:06;;;;;;;;;;;-0.90;99.90;;;;;;5028993;28;1977;-68
2023/03/08 01:07:31;;;;;;;;;;;-0.90;99.90;;;;;;5013174;28;1090;-68
2023/03/08 01:09:58;;;;;;;;;;;-1.00;99.90;;;;;;5023917;28;1546;-68
2023/03/08 01:12:24;;;;;;;;;;;-0.40;99.90;;;;;;5029131;28;965;-68
2023/03/08 01:14:50;;;;;;;;;;;-1.10;99.90;;;;;;5028410;28;1072;-68
2023/03/08 01:17:16;;;;;;;;;;;-0.90;99.90;;;;;;5013680;28;1081;-68
2023/03/08 01:19:42;;;;;;;;;;;-1.20;99.90;;;;;;5014934;28;1341;-68
2023/03/08 01:22:07;;;;;;;;;;;-1.50;99.90;;;;;;4993048;28;1419;-68
2023/03/08 01:24:33;;;;;;;;;;;-0.50;99.90;;;;;;5016609;28;1569;-68
2023/03/08 01:26:59;;;;;;;;;;;-1.60;99.90;;;;;;4991194;28;1989;-68
2023/03/08 01:29:26;;;;;;;;;;;-1.80;99.90;;;;;;5027741;28;1386;-68
2023/03/08 01:31:52;;;;;;;;;;;-1.30;99.90;;;;;;5019437;28;1171;-68
2023/03/08 01:34:18;;;;;;;;;;;-2.00;99.90;;;;;;5010814;28;1207;-68
2023/03/08 01:36:44;;;;;;;;;;;-1.70;99.90;;;;;;5028677;28;1121;-68
2023/03/08 01:39:09;;;;;;;;;;;-2.20;99.90;;;;;;5003433;28;1586;-68
2023/03/08 01:41:35;;;;;;;;;;;-2.30;99.90;;;;;;4981350;28;1086256;-68
2023/03/08 01:44:01;;;;;;;;;;;-2.40;99.90;;;;;;5018314;28;1268;-68
2023/03/08 01:46:31;;;;;;;;;;;-2.50;99.90;;;;;;5001290;28;1927;-68
2023/03/08 01:49:03;;;;;;;;;;;-2.40;99.90;;;;;;5016869;28;1244;-68
2023/03/08 01:51:34;;;;;;;;;;;-2.00;99.90;;;;;;4995508;28;1155;-68
2023/03/08 01:54:01;;;;;;;;;;;-2.20;99.90;;;;;;5028670;28;1026;-68
2023/03/08 01:56:27;;;;;;;;;;;-2.20;99.90;;;;;;5012059;28;1114;-68
2023/03/08 01:58:56;;;;;;;;;;;-2.20;99.90;;;;;;5025806;28;1574;-68
2023/03/08 02:01:22;;;;;;;;;;;-1.60;99.90;;;;;;5011633;28;1116;-68
2023/03/08 02:03:49;;;;;;;;;;;-2.20;99.90;;;;;;5012223;28;1318;-68
2023/03/08 02:06:18;;;;;;;;;;;-2.10;99.90;;;;;;5011193;28;1985;-68
2023/03/08 02:08:44;;;;;;;;;;;-1.90;99.90;;;;;;5018713;28;1538;-68
2023/03/08 02:11:10;;;;;;;;;;;-2.10;99.90;;;;;;5013022;28;1048;-67
2023/03/08 02:13:36;;;;;;;;;;;-2.10;99.90;;;;;;5029040;28;1121;-68
2023/03/08 02:16:04;;;;;;;;;;;-2.10;99.90;;;;;;5027740;28;1325;-67
2023/03/08 02:18:29;;;;;;;;;;;-2.10;99.90;;;;;;5015953;28;1155;-68
2023/03/08 02:20:55;;;;;;;;;;;-2.00;99.90;;;;;;5022890;28;1391;-67
2023/03/08 02:23:22;;;;;;;;;;;-1.80;99.90;;;;;;5017813;28;1109;-67
2023/03/08 02:25:49;;;;;;;;;;;-2.10;99.90;;;;;;5009545;28;1910;-67
2023/03/08 02:28:15;;;;;;;;;;;-1.90;99.90;;;;;;5025922;28;1060;-67
2023/03/08 02:30:41;;;;;;;;;;;-2.20;99.90;;;;;;4993230;28;1162;-67
2023/03/08 02:33:06;;;;;;;;;;;-2.20;99.90;;;;;;5025940;28;1423;-67
2023/03/08 02:35:32;;;;;;;;;;;-1.30;99.90;;;;;;4987917;28;1040;-67
2023/03/08 02:37:58;;;;;;;;;;;-1.60;99.90;;;;;;5019827;28;1384;-67
2023/03/08 02:40:24;;;;;;;;;;;-2.40;99.90;;;;;;4999154;28;1305;-66
2023/03/08 02:42:50;;;;;;;;;;;-2.30;99.90;;;;;;5016454;28;1151;-67
2023/03/08 02:45:15;;;;;;;;;;;-2.50;99.90;;;;;;5009366;28;1910;-67
2023/03/08 02:47:41;;;;;;;;;;;-2.60;99.90;;;;;;5022383;28;1416;-67
2023/03/08 02:50:07;;;;;;;;;;;-2.60;99.90;;;;;;5009923;28;1197;-67
2023/03/08 02:52:33;;;;;;;;;;;-2.60;99.90;;;;;;5027014;28;1522;-67
2023/03/08 02:54:59;;;;;;;;;;;-2.70;99.90;;;;;;5010938;28;1105;-67
2023/03/08 02:57:25;;;;;;;;;;;-2.70;99.90;;;;;;5001986;28;1471;-67
2023/03/08 02:59:52;;;;;;;;;;;-2.20;99.90;;;;;;5011138;28;1068;-67
2023/03/08 03:02:18;;;;;;;;;;;-2.50;99.90;;;;;;5016200;28;1100;-67
2023/03/08 03:04:44;;;;;;;;;;;-2.50;99.90;;;;;;5008514;28;1106;-67
2023/03/08 03:07:10;;;;;;;;;;;-2.50;99.90;;;;;;5008821;28;1907;-67
2023/03/08 03:09:37;;;;;;;;;;;-2.60;99.90;;;;;;5008679;28;1283;-67
2023/03/08 03:12:03;;;;;;;;;;;-2.80;99.90;;;;;;5015416;28;1030;-67
2023/03/08 03:14:31;;;;;;;;;;;-2.90;99.90;;;;;;5009543;28;1247;-67
2023/03/08 03:16:58;;;;;;;;;;;-2.90;99.90;;;;;;5010693;28;1220;-67
2023/03/08 03:19:24;;;;;;;;;;;-2.80;99.90;;;;;;5020902;28;1077;-67
2023/03/08 03:21:49;;;;;;;;;;;-2.30;99.90;;;;;;5024953;28;1558;-67
2023/03/08 03:24:15;;;;;;;;;;;-2.70;99.90;;;;;;5008922;28;1137;-67
2023/03/08 03:26:49;;;;;;;;;;;-2.50;99.90;;;;;;5019926;28;1969;-67
2023/03/08 03:29:14;;;;;;;;;;;-2.40;99.90;;;;;;5002778;28;1121;-67
2023/03/08 03:31:42;;;;;;;;;;;-1.60;99.90;;;;;;5017215;28;1131;-67
2023/03/08 03:34:09;;;;;;;;;;;-2.20;99.90;;;;;;5003153;28;1197;-66
2023/03/08 03:36:35;;;;;;;;;;;-2.20;99.90;;;;;;4999970;28;1244;-67
2023/03/08 03:39:02;;;;;;;;;;;-2.20;99.90;;;;;;5002238;28;1332;-67
2023/03/08 03:41:30;;;;;;;;;;;-2.20;99.90;;;;;;5008509;28;1249;-67
2023/03/08 03:44:07;;;;;;;;;;;-2.30;99.90;;;;;;5006818;28;1566;-67
2023/03/08 03:46:33;;;;;;;;;;;-2.20;99.90;;;;;;5027004;28;1914;-67
2023/03/08 03:48:59;;;;;;;;;;;-2.20;99.90;;;;;;5021674;28;1068;-66
2023/03/08 03:51:31;;;;;;;;;;;-1.90;99.90;;;;;;5009939;28;1417;-67
2023/03/08 03:54:08;;;;;;;;;;;-2.30;99.90;;;;;;5013225;28;1150;-67
2023/03/08 03:56:35;;;;;;;;;;;-2.40;99.90;;;;;;4996094;28;1145;-67
2023/03/08 03:59:02;;;;;;;;;;;-2.40;99.90;;;;;;5001713;28;1178;-66
2023/03/08 04:01:28;;;;;;;;;;;-2.40;99.90;;;;;;5028512;28;1380;-66
2023/03/08 04:04:00;;;;;;;;;;;-2.70;99.90;;;;;;5009207;28;1256;-67
2023/03/08 04:06:29;;;;;;;;;;;-2.70;99.90;;;;;;5006030;28;1991;-66
2023/03/08 04:08:57;;;;;;;;;;;-2.70;99.90;;;;;;5018525;28;1253;-66
2023/03/08 04:11:26;;;;;;;;;;;-2.60;99.90;;;;;;5002895;28;1105;-66
2023/03/08 04:13:53;;;;;;;;;;;-2.70;99.90;;;;;;5007040;28;1248;-67
2023/03/08 04:16:25;;;;;;;;;;;-1.70;99.90;;;;;;5006785;28;1141;-67
2023/03/08 04:18:53;;;;;;;;;;;-2.70;99.90;;;;;;5011517;28;1098;-66
2023/03/08 04:21:19;;;;;;;;;;;-2.70;99.90;;;;;;5010503;28;1298;-67
2023/03/08 04:23:45;;;;;;;;;;;-2.70;99.90;;;;;;5028869;28;1156;-67
2023/03/08 04:26:12;;;;;;;;;;;-2.70;99.90;;;;;;4999242;28;1914;-66
2023/03/08 04:28:38;;;;;;;;;;;-2.40;99.90;;;;;;5013301;28;1108;-67
2023/03/08 04:31:10;;;;;;;;;;;-2.60;99.90;;;;;;5024875;28;1340;-66
2023/03/08 04:33:36;;;;;;;;;;;-2.50;99.90;;;;;;5009004;28;1141;-66
2023/03/08 04:36:02;;;;;;;;;;;-2.50;99.90;;;;;;5024682;28;1353;-66
2023/03/08 04:38:28;;;;;;;;;;;-2.50;99.90;;;;;;5006866;28;1523;-66
2023/03/08 04:41:10;;;;;;;;;;;-2.00;99.90;;;;;;5002525;28;1205;-66
2023/03/08 04:43:51;;;;;;;;;;;-2.40;99.90;;;;;;5029112;28;1161;-66
2023/03/08 04:46:24;;;;;;;;;;;-2.30;99.90;;;;;;5013083;28;1918;-66
2023/03/08 04:48:52;;;;;;;;;;;-1.90;99.90;;;;;;5016979;28;1126;-66
2023/03/08 04:51:19;;;;;;;;;;;-2.30;99.90;;;;;;5013447;28;1392;-66
2023/03/08 04:53:46;;;;;;;;;;;-1.60;99.90;;;;;;5029437;28;1125;-66
2023/03/08 04:56:13;;;;;;;;;;;-2.10;99.90;;;;;;5026368;28;1180;-66
2023/03/08 04:58:39;;;;;;;;;;;-2.00;99.90;;;;;;4993091;28;1110;-66
2023/03/08 05:01:08;;;;;;;;;;;-2.20;99.90;;;;;;5006563;28;1114;-66
2023/03/08 05:03:34;;;;;;;;;;;-2.10;99.90;;;;;;5000625;28;1350;-66
2023/03/08 05:06:00;;;;;;;;;;;-2.10;99.90;;;;;;5000509;28;1915;-66
2023/03/08 05:08:26;;;;;;;;;;;-1.70;99.90;;;;;;5029474;28;1136;-66
2023/03/08 05:10:56;;;;;;;;;;;-2.00;99.90;;;;;;5014944;28;1089;-66
2023/03/08 05:13:23;;;;;;;;;;;-2.00;99.90;;;;;;5001124;28;1161;-66
2023/03/08 05:15:49;;;;;;;;;;;-2.00;99.90;;;;;;5028725;28;1164;-66
2023/03/08 05:18:14;;;;;;;;;;;-2.10;99.90;;;;;;5029674;28;1082;-66
2023/03/08 05:20:40;;;;;;;;;;;-2.10;99.90;;;;;;5012525;28;1035;-66
2023/03/08 05:23:06;;;;;;;;;;;-1.90;99.90;;;;;;5011506;28;1610;-66
2023/03/08 05:25:42;;;;;;;;;;;-2.00;99.90;;;;;;5011312;28;1966;-66
2023/03/08 05:28:08;;;;;;;;;;;-1.80;99.90;;;;;;5003511;28;1164;-66
2023/03/08 05:30:34;;;;;;;;;;;-1.70;99.90;;;;;;5008828;28;1167;-66
2023/03/08 05:33:00;;;;;;;;;;;-1.80;99.90;;;;;;5018158;28;1384;-66
2023/03/08 05:35:26;;;;;;;;;;;-1.80;99.90;;;;;;5015104;28;1101;-66
2023/03/08 05:37:51;;;;;;;;;;;-1.80;99.90;;;;;;5023124;28;1313;-66
2023/03/08 05:40:17;;;;;;;;;;;-1.90;99.90;;;;;;5007500;28;1178;-66
2023/03/08 05:42:45;;;;;;;;;;;-2.00;99.90;;;;;;5011851;28;1446;-66
2023/03/08 05:45:12;;;;;;;;;;;-2.00;99.90;;;;;;5027788;28;1983;-66
2023/03/08 05:47:39;;;;;;;;;;;-2.00;99.90;;;;;;5006244;28;1102;-66
2023/03/08 05:50:08;;;;;;;;;;;-2.10;99.90;;;;;;5017538;28;1121;-66
2023/03/08 05:52:36;;;;;;;;;;;-2.30;99.90;;;;;;4991612;28;1357;-66
2023/03/08 05:55:02;;;;;;;;;;;-2.40;99.90;;;;;;5009874;28;1102;-66
2023/03/08 05:57:28;;;;;;;;;;;-2.40;99.90;;;;;;5018459;28;1117;-66
2023/03/08 05:59:54;;;;;;;;;;;-1.90;99.90;;;;;;4995902;28;1105;-66
2023/03/08 06:02:21;;;;;;;;;;;-2.40;99.90;;;;;;5008814;28;1177;-66
2023/03/08 06:04:51;;;;;;;;;;;-2.10;99.90;;;;;;5009848;28;1172;-66
2023/03/08 06:07:20;;;;;;;;;;;-2.30;99.90;;;;;;5023062;28;1926;-66
2023/03/08 06:09:52;;;;;;;;;;;-2.10;99.90;;;;;;5017808;28;1586;-66
2023/03/08 06:12:18;;;;;;;;;;;-2.10;99.90;;;;;;5006528;28;1296;-66
2023/03/08 06:14:47;;;;;;;;;;;-1.30;99.90;;;;;;5003427;28;1311;-66
2023/03/08 06:17:14;;;;;;;;;;;-1.90;99.90;;;;;;5009710;28;1198;-66
2023/03/08 06:19:45;;;;;;;;;;;-1.70;99.90;;;;;;5013206;28;956;-66
2023/03/08 06:22:11;;;;;;;;;;;-1.90;99.90;;;;;;5006125;28;1426;-66
2023/03/08 06:24:36;;;;;;;;;;;-1.90;99.90;;;;;;5011067;28;1173;-66
2023/03/08 06:27:06;;;;;;;;;;;-1.80;99.90;;;;;;5008361;28;1977;-66
2023/03/08 06:29:32;;;;;;;;;;;-1.80;99.90;;;;;;5000159;28;1106;-66
2023/03/08 06:31:58;;;;;;;;;;;-1.70;99.90;;;;;;5009757;28;1726;-66
2023/03/08 06:34:24;;;;;;;;;;;-1.00;99.90;;;;;;4998804;28;1251;-66
2023/03/08 06:36:55;;;;;;;;;;;-1.80;99.90;;;;;;5026557;28;1121;-66
2023/03/08 06:39:21;;;;;;;;;;;-1.70;99.90;;;;;;5006261;28;1568;-66
2023/03/08 06:41:47;;;;;;;;;;;-1.70;99.90;;;;;;5014392;28;1232;-66
2023/03/08 06:44:13;;;;;;;;;;;-1.70;99.90;;;;;;5019871;28;1248;-66
2023/03/08 06:46:39;;;;;;;;;;;-1.60;99.90;;;;;;5012988;28;1976;-66
2023/03/08 06:49:06;;;;;;;;;;;-1.70;99.90;;;;;;4999399;28;1093;-66
2023/03/08 06:51:33;;;;;;;;;;;-1.60;99.90;;;;;;5019328;28;1328;-66
2023/03/08 06:53:58;;;;;;;;;;;-1.40;99.90;;;;;;5008887;28;1130;-66
2023/03/08 06:56:26;;;;;;;;;;;-1.60;99.90;;;;;;5004090;28;1098;-66
2023/03/08 06:58:52;;;;;;;;;;;-1.50;99.90;;;;;;5001498;28;1145;-66
2023/03/08 07:01:18;;;;;;;;;;;-1.50;99.90;;;;;;5024623;28;1080;-66
2023/03/08 07:03:45;;;;;;;;;;;-1.40;99.90;;;;;;5008640;28;1099;-66
2023/03/08 07:06:11;;;;;;;;;;;-1.40;99.90;;;;;;5009190;28;1918;-66
2023/03/08 07:08:38;;;;;;;;;;;-1.30;99.90;;;;;;5008485;28;1165;-66
2023/03/08 07:11:05;;;;;;;;;;;-1.30;99.90;;;;;;5012778;28;1024;-66
2023/03/08 07:13:31;;;;;;;;;;;-1.10;99.90;;;;;;5008828;28;1163;-66
2023/03/08 07:15:57;;;;;;;;;;;-1.10;99.90;;;;;;5025688;28;1208;-66
2023/03/08 07:18:22;;;;;;;;;;;-0.60;99.90;;;;;;5017404;28;1238;-66
2023/03/08 07:20:54;;;;;;;;;;;-1.00;99.90;;;;;;5027592;28;1432;-66
2023/03/08 07:23:20;;;;;;;;;;;-1.00;99.90;;;;;;5002895;28;1167;-66
2023/03/08 07:25:46;;;;;;;;;;;-1.00;99.90;;;;;;5011959;28;1906;-66
2023/03/08 07:28:11;;;;;;;;;;;-0.10;99.90;;;;;;5028363;28;1214;-66
2023/03/08 07:30:37;;;;;;;;;;;-0.80;99.90;;;;;;5031195;28;1105;-66
2023/03/08 07:33:03;;;;;;;;;;;-1.00;99.90;;;;;;4994792;28;1233;-66
2023/03/08 07:35:29;;;;;;;;;;;-0.60;99.90;;;;;;5012792;28;1113;-66
2023/03/08 07:37:55;;;;;;;;;;;-1.00;99.90;;;;;;5000697;28;1314;-66
2023/03/08 07:40:20;;;;;;;;;;;-0.90;99.90;;;;;;5014404;28;1109;-66
2023/03/08 07:42:46;;;;;;;;;;;-0.90;99.90;;;;;;4994518;28;1463;-66
2023/03/08 07:45:32;;;;;;;;;;;-0.60;99.90;;;;;;5004919;28;1918;-66
2023/03/08 07:47:58;;;;;;;;;;;-0.90;99.90;;;;;;5026612;28;1109;-67
2023/03/08 07:50:24;;;;;;;;;;;-0.20;99.90;;;;;;5025410;28;1115;-66
2023/03/08 07:52:50;;;;;;;;;;;-0.70;99.90;;;;;;5030421;28;1188;-66
2023/03/08 07:55:16;;;;;;;;;;;-0.60;99.90;;;;;;4997830;28;1266;-66
2023/03/08 07:57:41;;;;;;;;;;;-0.40;99.90;;;;;;5011894;28;1224;-66
2023/03/08 08:00:07;;;;;;;;;;;-0.30;99.90;;;;;;5011660;28;1127;-66
2023/03/08 08:02:37;;;;;;;;;;;-0.20;99.90;;;;;;5020249;28;1172;-66
2023/03/08 08:05:03;;;;;;;;;;;-0.10;99.90;;;;;;5011965;28;1973;-66
2023/03/08 08:07:29;;;;;;;;;;;0.00;99.90;;;;;;5014344;28;1094;-66
2023/03/08 08:09:55;;;;;;;;;;;0.00;99.90;;;;;;5022345;28;1320;-66
2023/03/08 08:12:20;;;;;;;;;;;0.00;99.90;;;;;;5021400;28;1279;-66
2023/03/08 08:14:46;;;;;;;;;;;0.10;99.90;;;;;;5020906;28;1165;-66
2023/03/08 08:17:11;;;;;;;;;;;0.10;99.90;;;;;;5017567;28;1220;-67
2023/03/08 08:19:37;;;;;;;;;;;0.50;99.90;;;;;;5021279;28;1307;-67
2023/03/08 08:22:03;;;;;;;;;;;0.20;99.90;;;;;;5007164;28;1280;-67
2023/03/08 08:24:29;;;;;;;;;;;0.40;99.90;;;;;;5011245;28;1184;-67
2023/03/08 08:26:55;;;;;;;;;;;0.40;99.90;;;;;;5017998;28;1926;-67
2023/03/08 08:29:21;;;;;;;;;;;0.60;99.90;;;;;;5010872;28;1362;-67
2023/03/08 08:31:47;;;;;;;;;;;0.50;99.90;;;;;;5024913;28;1100;-67
2023/03/08 08:34:13;;;;;;;;;;;0.50;99.90;;;;;;5024242;28;3284;-67
2023/03/08 08:36:38;;;;;;;;;;;0.60;99.90;;;;;;5017002;28;1168;-67
2023/03/08 08:39:04;;;;;;;;;;;0.60;99.90;;;;;;5020627;28;2945;-67
2023/03/08 08:41:31;;;;;;;;;;;0.70;99.90;;;;;;5018284;28;1322;-67
2023/03/08 08:43:58;;;;;;;;;;;0.70;99.90;;;;;;5019625;28;1233;-67
2023/03/08 08:46:24;;;;;;;;;;;0.70;99.90;;;;;;5022893;28;1914;-67
2023/03/08 08:48:50;;;;;;;;;;;0.80;99.90;;;;;;5013571;28;1145;-67
2023/03/08 08:51:15;;;;;;;;;;;0.90;99.90;;;;;;5025103;28;2576;-67
2023/03/08 08:53:43;;;;;;;;;;;1.00;99.90;;;;;;5030313;28;1145;-67
2023/03/08 08:56:13;;;;;;;;;;;1.10;99.90;;;;;;4999483;28;1090;-67
2023/03/08 08:58:39;;;;;;;;;;;1.20;99.90;;;;;;5030374;28;1129;-67
2023/03/08 09:01:11;;;;;;;;;;;1.30;99.90;;;;;;5019084;28;1180;-68
2023/03/08 09:03:37;;;;;;;;;;;1.30;99.90;;;;;;5019035;28;1224;-67
2023/03/08 09:06:02;;;;;;;;;;;1.40;99.90;;;;;;5003600;28;1985;-68
2023/03/08 09:08:28;;;;;;;;;;;1.40;99.90;;;;;;5018305;28;1151;-68
2023/03/08 09:10:54;;;;;;;;;;;1.40;99.90;;;;;;5017585;28;1248;-68
2023/03/08 09:13:19;;;;;;;;;;;1.60;99.90;;;;;;5021331;28;1131;-68
2023/03/08 09:15:45;;;;;;;;;;;1.80;99.90;;;;;;5022297;28;1365;-68
2023/03/08 09:18:11;;;;;;;;;;;2.10;99.90;;;;;;5009866;28;1188;-68
2023/03/08 09:20:36;;;;;;;;;;;2.10;99.90;;;;;;5011209;28;1279;-68
2023/03/08 09:23:02;;;;;;;;;;;2.10;99.90;;;;;;5019612;28;1594;-68
2023/03/08 09:25:28;;;;;;;;;;;2.30;99.90;;;;;;5017005;28;1910;-68
2023/03/08 09:27:53;;;;;;;;;;;2.60;99.90;;;;;;5009891;28;1236;-68
2023/03/08 09:30:19;;;;;;;;;;;2.40;99.90;;;;;;5008514;28;1127;-68
2023/03/08 09:32:45;;;;;;;;;;;2.50;99.90;;;;;;5020974;28;1341;-68
2023/03/08 09:35:11;;;;;;;;;;;2.70;99.90;;;;;;5013632;28;1194;-67
2023/03/08 09:37:37;;;;;;;;;;;2.90;99.90;;;;;;5013212;28;1325;-67
2023/03/08 09:40:08;;;;;;;;;;;3.10;99.90;;;;;;5023048;28;1109;-68
2023/03/08 09:42:34;;;;;;;;;;;3.20;99.90;;;;;;5013012;28;1338;-68
2023/03/08 09:44:59;;;;;;;;;;;3.30;99.90;;;;;;5012632;28;1133;-67
2023/03/08 09:47:25;;;;;;;;;;;3.40;99.90;;;;;;5014143;28;1910;-68
2023/03/08 09:49:53;;;;;;;;;;;3.60;99.90;;;;;;5012401;28;1269;-68
2023/03/08 09:52:22;;;;;;;;;;;3.80;99.90;;;;;;5011128;28;1159;-68
2023/03/08 09:54:49;;;;;;;;;;;3.90;99.90;;;;;;5009732;28;1117;-68
2023/03/08 09:57:20;;;;;;;;;;;4.30;99.90;;;;;;5016085;28;1106;-68
2023/03/08 09:59:52;;;;;;;;;;;4.60;99.90;;;;;;5011129;28;1056;-68
2023/03/08 10:02:40;;;;;;;;;;;4.40;99.90;;;;;;5016152;28;1233;-68
2023/03/08 10:05:10;;;;;;;;;;;4.50;99.90;;;;;;5006629;28;1910;-68
2023/03/08 10:07:44;;;;;;;;;;;4.70;99.90;;;;;;5012374;28;1454;-68
2023/03/08 10:10:15;;;;;;;;;;;4.80;99.90;;;;;;5016079;28;1620;-68
2023/03/08 10:12:49;;;;;;;;;;;4.90;99.90;;;;;;5018687;28;1228;-68
2023/03/08 10:15:17;;;;;;;;;;;5.10;99.90;;;;;;5016122;28;1237;-68
2023/03/08 10:17:47;;;;;;;;;;;5.10;99.90;;;;;;5021059;28;1240;-68
2023/03/08 10:20:23;;;;;;;;;;;5.20;99.90;;;;;;5021296;28;1174;-68
2023/03/08 10:22:56;;;;;;;;;;;5.20;99.90;;;;;;5025586;28;1645;-68
2023/03/08 10:25:23;;;;;;;;;;;5.40;99.90;;;;;;5013746;28;2009;-68
2023/03/08 10:27:51;;;;;;;;;;;5.80;99.90;;;;;;5026848;28;1164;-68
2023/03/08 10:30:18;;;;;;;;;;;;;;;;;;5015904;28;1152;-68
2023/03/08 10:32:45;;;;;;;;;;;6.00;99.90;;;;;;5024737;28;1365;-68
2023/03/08 10:35:11;;;;;;;;;;;6.20;99.90;;;;;;5013317;28;1081;-68
2023/03/08 10:37:37;;;;;;;;;;;6.40;99.90;;;;;;5013140;28;1333;-68
2023/03/08 10:40:09;;;;;;;;;;;6.70;99.90;;;;;;5013062;28;1106;-68
2023/03/08 10:42:35;;;;;;;;;;;7.20;99.90;;;;;;4996850;28;1234;-68
2023/03/08 10:45:15;;;;;;;;;;;8.00;99.90;;;;;;4992714;28;1098;-68
2023/03/08 10:47:41;;;;;;;;;;;8.60;99.90;;;;;;4990224;28;1248;-68
2023/03/08 10:50:08;;;;;;;;;;;9.20;99.90;;;;;;5001304;28;1331;-68
2023/03/08 10:52:33;;;;;;;;;;;9.60;99.90;;;;;;4989332;28;1122;-68
2023/03/08 10:55:11;;;;;;;;;;;9.90;99.90;;;;;;4988758;28;1201;-68
2023/03/08 10:57:38;;;;;;;;;;;10.20;99.90;;;;;;5005409;28;1224;-69
2023/03/08 11:00:11;;;;;;;;;;;10.30;99.90;;;;;;5011525;28;1216;-69
2023/03/08 11:02:37;;;;;;;;;;;10.10;99.90;;;;;;5010715;28;1206;-69
2023/03/08 11:05:15;;;;;;;;;;;9.90;99.90;;;;;;5009821;28;1135;-66
2023/03/08 11:07:48;;;;;;;;;;;9.90;99.90;;;;;;5009788;28;1207;-66
2023/03/08 11:10:15;;;;;;;;;;;10.00;99.90;;;;;;5010552;28;1234;-66
2023/03/08 11:12:41;;;;;;;;;;;9.80;99.90;;;;;;5012555;28;1194;-66
2023/03/08 11:15:12;;;;;;;;;;;9.70;99.90;;;;;;5012440;28;1180;-66
2023/03/08 11:17:39;;;;;;;;;;;9.60;99.90;;;;;;5010989;28;1170;-66
2023/03/08 11:20:13;;;;;;;;;;;9.20;99.90;;;;;;5007934;28;1432;-66
2023/03/08 11:22:45;;;;;;;;;;;9.20;99.90;;;;;;5008309;28;1212;-66
2023/03/08 11:25:14;;;;;;;;;;;9.30;99.90;;;;;;5003446;28;1946;-66
2023/03/08 11:27:48;;;;;;;;;;;9.40;99.90;;;;;;4998799;28;1150;-67
2023/03/08 11:30:14;;;;;;;;;;;9.50;99.90;;;;;;4992106;28;1169;-66
2023/03/08 11:32:41;;;;;;;;;;;9.70;99.90;;;;;;5005855;28;1388;-66
2023/03/08 11:35:12;;;;;;;;;;;9.70;99.90;;;;;;5009931;28;1198;-66
2023/03/08 11:37:42;;;;;;;;;;;9.70;99.90;;;;;;5007826;28;1356;-66
2023/03/08 11:40:23;;;;;;;;;;;10.10;99.90;;;;;;5010997;28;1043;-66
2023/03/08 11:42:54;;;;;;;;;;;10.10;99.90;;;;;;5010077;28;1099;-66
2023/03/08 11:45:19;;;;;;;;;;;10.20;99.90;;;;;;5003894;28;1914;-66
2023/03/08 11:47:52;;;;;;;;;;;10.00;99.90;;;;;;5020016;28;1491;-66
2023/03/08 11:50:27;;;;;;;;;;;9.90;99.90;;;;;;4999940;28;1039;-66
2023/03/08 11:52:58;;;;;;;;;;;10.00;99.90;;;;;;5005515;28;1221;-66
2023/03/08 11:55:34;;;;;;;;;;;10.20;99.90;;;;;;5012478;28;1211;-67
2023/03/08 11:58:03;;;;;;;;;;;10.70;99.90;;;;;;5006347;28;1179;-66
2023/03/08 12:00:29;;;;;;;;;;;10.90;99.90;;;;;;5017367;28;1171;-66
2023/03/08 12:02:58;;;;;;;;;;;11.20;99.90;;;;;;5001410;28;1224;-66
2023/03/08 12:05:24;;;;;;;;;;;11.50;99.90;;;;;;4999140;28;1938;-66
2023/03/08 12:08:10;;;;;;;;;;;11.40;98.50;;;;;;4997597;28;1157;-66
2023/03/08 12:10:41;;;;;;;;;;;11.40;97.70;;;;;;5008137;28;1607;-67
2023/03/08 12:13:10;;;;;;;;;;;11.10;97.30;;;;;;5001677;28;1168;-66
2023/03/08 12:15:36;;;;;;;;;;;10.80;96.50;;;;;;5004355;28;1196;-66
2023/03/08 12:18:19;;;;;;;;;;;10.60;97.30;;;;;;4995072;28;1247;-66
2023/03/08 12:20:45;;;;;;;;;;;10.70;98.00;;;;;;5000683;28;1187;-66
2023/03/08 12:23:27;;;;;;;;;;;10.80;96.90;;;;;;5002361;28;1585;-66
2023/03/08 12:25:58;;;;;;;;;;;10.70;97.10;;;;;;5020635;28;2092;-66
2023/03/08 12:28:27;;;;;;;;;;;10.80;97.10;;;;;;5005173;28;1178;-66
2023/03/08 12:31:00;;;;;;;;;;;10.80;96.50;;;;;;5006104;28;1199;-66
2023/03/08 12:33:27;;;;;;;;;;;11.00;96.40;;;;;;4999093;28;3034;-66
2023/03/08 12:35:53;;;;;;;;;;;11.30;96.40;;;;;;5002190;28;2901;-66
2023/03/08 12:38:18;;;;;;;;;;;11.60;96.20;;;;;;5003250;28;2539;-66
2023/03/08 12:40:45;;;;;;;;;;;11.80;94.80;;;;;;5006795;28;1151;-66
2023/03/08 12:43:12;;;;;;;;;;;11.80;94.50;;;;;;5025035;28;1181;-66
2023/03/08 12:45:39;;;;;;;;;;;11.70;94.60;;;;;;5022172;28;1910;-66
2023/03/08 12:48:05;;;;;;;;;;;11.50;92.10;;;;;;5025130;28;1170;-66
2023/03/08 12:50:35;;;;;;;;;;;11.40;94.40;;;;;;5023906;28;2544;-66
2023/03/08 12:53:01;;;;;;;;;;;11.30;94.70;;;;;;5004058;28;1119;-66
2023/03/08 12:55:34;;;;;;;;;;;11.00;96.10;;;;;;5026095;28;1198;-66
2023/03/08 12:58:01;;;;;;;;;;;10.90;96.70;;;;;;5026556;28;1278;-66
2023/03/08 13:00:30;;;;;;;;;;;10.90;96.80;;;;;;5028115;28;1232;-66
2023/03/08 13:02:58;;;;;;;;;;;11.20;95.10;;;;;;5006886;28;1125;-66
2023/03/08 13:05:31;;;;;;;;;;;11.40;95.40;;;;;;5028147;28;2001;-66
2023/03/08 13:08:01;;;;;;;;;;;11.60;95.20;;;;;;5024037;28;1178;-66
2023/03/08 13:10:30;;;;;;;;;;;11.60;93.90;;;;;;5024424;28;1238;-66
2023/03/08 13:13:03;;;;;;;;;;;11.60;94.50;;;;;;5020904;28;1113;-66
2023/03/08 13:15:28;;;;;;;;;;;11.90;93.60;;;;;;5023137;28;1128;-66
2023/03/08 13:17:58;;;;;;;;;;;12.10;92.60;;;;;;5005784;28;1295;-66
2023/03/08 13:20:28;;;;;;;;;;;12.20;92.00;;;;;;5014188;28;1197;-66
2023/03/08 13:23:06;;;;;;;;;;;12.10;91.60;;;;;;5021580;28;1423;-66
2023/03/08 13:25:32;;;;;;;;;;;11.90;91.30;;;;;;5009781;28;1906;-66
2023/03/08 13:28:02;;;;;;;;;;;11.60;89.20;;;;;;5001381;28;1249;-66
2023/03/08 13:30:31;;;;;;;;;;;11.40;91.20;;;;;;5024367;28;1117;-66
2023/03/08 13:32:57;;;;;;;;;;;11.30;92.50;;;;;;5029181;28;1413;-66
2023/03/08 13:35:23;;;;;;;;;;;11.30;92.40;;;;;;5012427;28;1135;-66
2023/03/08 13:37:51;;;;;;;;;;;11.40;93.10;;;;;;5013841;28;1365;-66
2023/03/08 13:40:18;;;;;;;;;;;11.30;93.10;;;;;;5029811;28;1097;-66
2023/03/08 13:42:51;;;;;;;;;;;11.20;93.50;;;;;;5028880;28;1182;-66
2023/03/08 13:45:17;;;;;;;;;;;11.10;93.80;;;;;;5023942;28;1902;-66
2023/03/08 13:47:44;;;;;;;;;;;11.00;94.10;;;;;;5020088;28;1147;-66
2023/03/08 13:50:19;;;;;;;;;;;10.90;93.50;;;;;;5025161;28;1340;-66
2023/03/08 13:52:45;;;;;;;;;;;10.80;94.20;;;;;;5028581;28;1132;-66
2023/03/08 13:55:17;;;;;;;;;;;10.80;94.60;;;;;;5010387;28;1102;-66
2023/03/08 13:57:46;;;;;;;;;;;10.60;94.70;;;;;;5018406;28;1530;-66
2023/03/08 14:00:22;;;;;;;;;;;10.40;93.70;;;;;;5022718;28;1152;-66
2023/03/08 14:02:48;;;;;;;;;;;10.20;94.60;;;;;;5018122;28;1105;-66
2023/03/08 14:05:16;;;;;;;;;;;10.00;94.70;;;;;;5016664;28;1000;-66
2023/03/08 14:07:42;;;;;;;;;;;9.80;95.90;;;;;;5029240;28;1098;-66
2023/03/08 14:10:11;;;;;;;;;;;9.60;96.30;;;;;;5027365;28;1364;-67
2023/03/08 14:12:37;;;;;;;;;;;9.40;97.40;;;;;;5024012;28;1479;-66
2023/03/08 14:15:04;;;;;;;;;;;9.20;97.60;;;;;;5025678;28;1139;-66
2023/03/08 14:17:32;;;;;;;;;;;9.10;98.00;;;;;;5007930;28;1186;-66
2023/03/08 14:19:59;;;;;;;;;;;8.90;99.60;;;;;;5025972;28;1068;-66
2023/03/08 14:22:26;;;;;;;;;;;8.70;99.50;;;;;;5020674;28;1771;-66
2023/03/08 14:24:54;;;;;;;;;;;8.60;99.90;;;;;;5026024;28;1388;-66
2023/03/08 14:27:20;;;;;;;;;;;8.50;99.90;;;;;;5027796;28;1930;-66
2023/03/08 14:29:46;;;;;;;;;;;8.50;99.90;;;;;;5023541;28;1215;-66
2023/03/08 14:32:12;;;;;;;;;;;8.40;99.90;;;;;;5026048;28;1364;-66
2023/03/08 14:34:39;;;;;;;;;;;8.40;99.90;;;;;;5027062;28;1171;-66
2023/03/08 14:37:06;;;;;;;;;;;8.40;99.90;;;;;;5025146;28;1163;-66